Time;durP1;ratioP1;P1;durP2;ratioP2;P2;SDS_P1;SDS_P2;PMS_P1;PMS_P2;Temp;Humidity;BMP_temperature;BMP_pressure;BME280_temperature;BME280_humidity;BME280_pressure;Samples;Min_cycle;Max_cycle;Signal;HPM_P1;HPM_P2
2022/06/13 00:01:17;;;;;;;6.57;2.28;;;15.00;80.90;;;;;;5059130;28;20048;-70
2022/06/13 00:03:44;;;;;;;4.97;2.63;;;15.00;81.40;;;;;;5059001;28;20098;-70
2022/06/13 00:06:11;;;;;;;10.80;3.38;;;15.00;81.90;;;;;;5056688;28;20049;-70
2022/06/13 00:08:38;;;;;;;7.55;3.28;;;14.90;82.00;;;;;;5056696;28;20048;-70
2022/06/13 00:11:07;;;;;;;38.55;28.23;;;14.90;82.30;;;;;;5055801;28;20044;-60
2022/06/13 00:13:33;;;;;;;41.00;33.53;;;14.90;83.10;;;;;;5054547;28;20044;-64
2022/06/13 00:16:00;;;;;;;12.98;7.13;;;14.90;83.50;;;;;;5055490;28;20052;-66
2022/06/13 00:18:27;;;;;;;10.90;4.25;;;14.90;83.70;;;;;;5056505;28;20045;-67
2022/06/13 00:20:54;;;;;;;6.07;2.90;;;14.90;84.10;;;;;;5055979;28;20045;-67
2022/06/13 00:23:22;;;;;;;9.43;2.53;;;14.80;84.30;;;;;;5055526;28;20053;-66
2022/06/13 00:25:48;;;;;;;6.93;3.20;;;14.70;84.90;;;;;;5056631;28;20338;-67
2022/06/13 00:28:16;;;;;;;8.50;3.63;;;14.70;85.70;;;;;;5055518;28;20465;-67
2022/06/13 00:30:43;;;;;;;9.02;2.92;;;14.60;86.30;;;;;;5055467;28;20056;-67
2022/06/13 00:33:09;;;;;;;8.25;2.47;;;14.60;87.20;;;;;;5056484;28;20037;-67
2022/06/13 00:35:36;;;;;;;10.55;2.88;;;14.60;87.40;;;;;;5055561;28;20045;-67
2022/06/13 00:38:03;;;;;;;9.70;2.40;;;14.50;87.80;;;;;;5054779;28;20048;-66
2022/06/13 00:40:31;;;;;;;9.88;2.90;;;14.50;87.90;;;;;;5055284;28;20476;-67
2022/06/13 00:42:58;;;;;;;7.82;2.95;;;14.50;89.00;;;;;;5054286;28;20044;-67
2022/06/13 00:45:35;;;;;;;8.18;2.42;;;14.50;89.40;;;;;;5055413;28;20037;-66
2022/06/13 00:48:03;;;;;;;6.00;2.15;;;14.40;90.20;;;;;;5054202;28;20049;-66
2022/06/13 00:50:59;;;;;;;9.55;3.25;;;14.40;90.20;;;;;;5054933;28;20476;-66
2022/06/13 00:53:30;;;;;;;7.78;3.05;;;14.40;90.60;;;;;;5055025;28;20045;-67
2022/06/13 00:56:00;;;;;;;12.30;3.60;;;14.30;91.00;;;;;;5037100;28;20492;-67
2022/06/13 00:58:29;;;;;;;7.05;2.53;;;14.30;91.30;;;;;;5053657;28;20136;-66
2022/06/13 01:00:57;;;;;;;8.48;2.58;;;14.20;91.50;;;;;;5053660;28;20037;-66
2022/06/13 01:03:25;;;;;;;6.35;2.50;;;14.20;91.80;;;;;;5053609;28;20489;-66
2022/06/13 01:05:52;;;;;;;8.07;3.22;;;14.20;92.20;;;;;;5053505;28;20489;-66
2022/06/13 01:08:20;;;;;;;11.25;3.08;;;14.10;92.50;;;;;;5053830;28;20045;-66
2022/06/13 01:14:03;;;;;;;7.80;2.35;;;14.10;93.00;;;;;;5054828;28;20345;-66
2022/06/13 01:16:33;;;;;;;8.57;3.03;;;14.00;94.30;;;;;;5052533;28;20507;-66
2022/06/13 01:19:30;;;;;;;6.47;2.75;;;13.90;94.40;;;;;;5054034;28;20045;-66
2022/06/13 01:22:25;;;;;;;8.88;2.95;;;13.90;95.30;;;;;;5054504;28;20076;-66
2022/06/13 01:25:19;;;;;;;6.80;2.83;;;13.80;95.80;;;;;;5054389;28;20049;-66
2022/06/13 01:28:24;;;;;;;5.22;2.30;;;13.80;96.50;;;;;;5053272;28;20041;-66
2022/06/13 01:31:12;;;;;;;7.03;2.13;;;13.80;97.10;;;;;;5053295;28;20048;-66
2022/06/13 01:33:46;;;;;;;7.15;2.50;;;13.80;97.50;;;;;;5053230;28;20380;-66
2022/06/13 01:36:16;;;;;;;7.00;2.53;;;13.70;98.40;;;;;;5054084;28;20056;-66
2022/06/13 01:39:02;;;;;;;4.60;2.55;;;13.60;98.80;;;;;;5054426;28;20045;-65
2022/06/13 01:41:49;;;;;;;8.63;3.05;;;13.60;99.90;;;;;;5052934;28;20041;-66
2022/06/13 01:44:27;;;;;;;6.55;2.15;;;13.50;99.90;;;;;;5054332;28;20430;-66
2022/06/13 01:47:02;;;;;;;6.25;3.03;;;13.50;99.90;;;;;;5053620;28;20049;-66
2022/06/13 01:49:40;;;;;;;6.40;2.25;;;13.40;99.90;;;;;;5055045;28;20052;-66
2022/06/13 01:52:08;;;;;;;7.30;2.70;;;13.40;99.90;;;;;;5053510;28;20049;-66
2022/06/13 01:54:46;;;;;;;6.55;2.50;;;13.30;99.90;;;;;;5054578;28;20041;-66
2022/06/13 01:57:36;;;;;;;4.72;2.20;;;13.30;99.90;;;;;;5054994;28;20044;-66
2022/06/13 02:00:10;;;;;;;5.57;2.30;;;13.20;99.90;;;;;;5053877;28;20041;-66
2022/06/13 02:02:51;;;;;;;4.78;2.53;;;13.20;99.90;;;;;;5053251;28;20111;-66
2022/06/13 02:05:34;;;;;;;8.80;3.05;;;13.20;99.90;;;;;;5054243;28;20424;-66
2022/06/13 02:08:13;;;;;;;7.20;2.63;;;13.10;99.90;;;;;;5053573;28;20045;-66
2022/06/13 02:11:04;;;;;;;9.93;4.38;;;13.00;99.90;;;;;;5053210;28;20047;-66
2022/06/13 02:13:36;;;;;;;9.52;3.38;;;13.00;99.90;;;;;;5053076;28;20116;-66
2022/06/13 02:16:33;;;;;;;8.63;3.90;;;13.00;99.90;;;;;;5053014;28;20041;-66
2022/06/13 02:19:05;;;;;;;6.63;3.30;;;13.00;99.90;;;;;;5044638;28;20092;-66
2022/06/13 02:21:55;;;;;;;9.15;4.78;;;12.90;99.90;;;;;;5053221;28;20384;-66
2022/06/13 02:24:23;;;;;;;9.80;3.50;;;12.90;99.90;;;;;;5053303;28;20056;-66
2022/06/13 02:26:51;;;;;;;11.45;4.00;;;12.90;99.90;;;;;;5052175;28;20041;-66
2022/06/13 02:29:25;;;;;;;12.90;3.60;;;12.90;99.90;;;;;;5052074;28;20040;-66
2022/06/13 02:31:54;;;;;;;7.28;4.28;;;12.80;99.90;;;;;;5052607;28;20045;-66
2022/06/13 02:34:24;;;;;;;19.00;4.63;;;12.70;99.90;;;;;;5053457;28;20041;-66
2022/06/13 02:37:00;;;;;;;7.63;3.75;;;12.80;99.90;;;;;;5052062;28;20044;-66
2022/06/13 02:39:28;;;;;;;13.40;3.88;;;12.80;99.90;;;;;;5052334;28;20045;-66
2022/06/13 02:42:17;;;;;;;11.07;3.70;;;12.70;99.90;;;;;;5053496;28;20048;-66
2022/06/13 02:44:49;;;;;;;11.73;3.92;;;12.70;99.90;;;;;;5052223;28;20140;-66
2022/06/13 02:47:20;;;;;;;8.55;2.97;;;12.70;99.90;;;;;;5053083;28;20045;-66
2022/06/13 02:49:56;;;;;;;11.05;4.45;;;12.60;99.90;;;;;;5052979;28;20354;-66
2022/06/13 02:53:09;;;;;;;15.70;4.80;;;12.60;99.90;;;;;;5054186;28;20040;-66
2022/06/13 02:55:43;;;;;;;10.52;3.67;;;12.60;99.90;;;;;;5052702;28;20087;-67
2022/06/13 02:58:25;;;;;;;7.72;3.08;;;12.50;99.90;;;;;;5052665;28;20126;-66
2022/06/13 03:01:00;;;;;;;12.65;3.58;;;12.50;99.90;;;;;;5052066;28;20082;-66
2022/06/13 03:03:38;;;;;;;10.73;3.85;;;12.40;99.90;;;;;;5052051;28;20049;-66
2022/06/13 03:06:26;;;;;;;10.38;3.90;;;12.40;99.90;;;;;;5052837;28;20349;-66
2022/06/13 03:09:01;;;;;;;10.45;3.88;;;12.30;99.90;;;;;;5036389;28;20360;-66
2022/06/13 03:11:40;;;;;;;10.10;4.10;;;12.30;99.90;;;;;;5052939;28;20384;-66
2022/06/13 03:14:19;;;;;;;10.27;3.83;;;12.20;99.90;;;;;;5052177;28;20441;-66
2022/06/13 03:16:56;;;;;;;8.57;3.90;;;12.20;99.90;;;;;;5052388;28;20468;-66
2022/06/13 03:19:43;;;;;;;9.40;4.40;;;12.20;99.90;;;;;;5051902;28;20057;-66
2022/06/13 03:22:18;;;;;;;12.45;4.05;;;12.20;99.90;;;;;;5051632;28;20052;-66
2022/06/13 03:25:12;;;;;;;16.48;4.80;;;12.10;99.90;;;;;;5052424;28;20060;-66
2022/06/13 03:27:58;;;;;;;10.45;4.93;;;12.10;99.90;;;;;;5053883;28;20037;-66
2022/06/13 03:30:27;;;;;;;10.45;4.40;;;12.10;99.90;;;;;;5052155;28;20483;-66
2022/06/13 03:35:44;;;;;;;13.52;4.15;;;12.00;99.90;;;;;;5051674;28;20045;-66
2022/06/13 03:38:14;;;;;;;8.65;3.90;;;12.00;99.90;;;;;;5051817;28;20048;-66
2022/06/13 03:40:42;;;;;;;18.38;6.47;;;12.00;99.90;;;;;;5052854;28;20548;-66
2022/06/13 03:43:15;;;;;;;14.10;5.95;;;12.00;99.90;;;;;;5056212;28;20052;-66
2022/06/13 03:45:51;;;;;;;12.52;4.40;;;11.90;99.90;;;;;;5055296;28;20041;-66
2022/06/13 03:48:25;;;;;;;13.85;5.05;;;11.90;99.90;;;;;;5055178;28;20099;-66
2022/06/13 03:50:55;;;;;;;12.23;4.53;;;11.90;99.90;;;;;;5055449;28;20065;-66
2022/06/13 03:53:39;;;;;;;10.23;4.65;;;11.90;99.90;;;;;;5055288;28;20516;-66
2022/06/13 03:56:21;;;;;;;11.57;4.63;;;11.90;99.90;;;;;;5056105;28;20045;-66
2022/06/13 03:59:21;;;;;;;10.35;3.88;;;11.90;99.90;;;;;;5055675;28;20400;-66
2022/06/13 04:01:57;;;;;;;12.57;5.22;;;11.90;99.90;;;;;;5047831;28;20045;-66
2022/06/13 04:04:32;;;;;;;12.07;4.30;;;11.90;99.90;;;;;;5039458;28;20427;-66
2022/06/13 04:07:01;;;;;;;9.13;4.22;;;11.90;99.90;;;;;;5055920;28;20044;-66
2022/06/13 04:09:35;;;;;;;12.37;4.97;;;11.90;99.90;;;;;;5055628;28;20064;-67
2022/06/13 04:12:08;;;;;;;12.93;4.63;;;11.90;99.90;;;;;;5039133;28;20044;-66
2022/06/13 04:14:41;;;;;;;10.98;4.32;;;11.90;99.90;;;;;;5056450;28;20053;-66
2022/06/13 04:17:25;;;;;;;9.02;3.63;;;11.90;99.90;;;;;;5056031;28;20059;-67
2022/06/13 04:20:20;;;;;;;12.75;5.93;;;11.90;99.90;;;;;;5054502;28;20041;-66
2022/06/13 04:22:52;;;;;;;9.52;4.68;;;11.90;99.90;;;;;;5054480;28;20049;-67
2022/06/13 04:25:38;;;;;;;10.27;4.45;;;11.90;99.90;;;;;;5054335;28;20063;-66
2022/06/13 04:28:14;;;;;;;15.23;4.60;;;11.90;99.90;;;;;;5056386;28;20041;-66
2022/06/13 04:30:41;;;;;;;12.52;4.85;;;12.00;99.90;;;;;;5055463;28;20044;-67
2022/06/13 04:33:27;;;;;;;7.97;4.38;;;12.00;99.90;;;;;;5037822;28;20091;-67
2022/06/13 04:35:54;;;;;;;13.60;4.35;;;12.00;99.90;;;;;;5054252;28;20392;-67
2022/06/13 04:38:21;;;;;;;10.30;4.30;;;12.10;99.90;;;;;;5054957;28;20124;-67
2022/06/13 04:40:52;;;;;;;11.27;5.00;;;12.30;99.90;;;;;;5054117;28;20044;-67
2022/06/13 04:43:20;;;;;;;8.73;4.00;;;12.70;99.90;;;;;;5054951;28;20106;-67
2022/06/13 04:45:58;;;;;;;15.18;4.55;;;13.20;99.90;;;;;;5055068;28;20056;-67
2022/06/13 04:48:25;;;;;;;8.88;3.63;;;13.70;99.90;;;;;;5053980;28;20076;-67
2022/06/13 04:50:55;;;;;;;9.55;3.95;;;14.30;99.90;;;;;;5054971;28;20055;-67
2022/06/13 04:53:34;;;;;;;7.72;3.83;;;14.70;99.90;;;;;;5037707;28;20055;-67
2022/06/13 04:56:01;;;;;;;8.27;3.60;;;15.20;99.90;;;;;;5055090;28;20049;-67
2022/06/13 04:58:28;;;;;;;11.32;5.47;;;15.60;99.90;;;;;;5087004;28;20483;-67
2022/06/13 05:00:59;;;;;;;9.65;3.95;;;16.10;99.90;;;;;;5055692;28;20065;-68
2022/06/13 05:03:28;;;;;;;9.77;3.45;;;16.50;99.90;;;;;;5054915;28;20045;-67
2022/06/13 05:05:56;;;;;;;9.90;4.18;;;17.00;99.90;;;;;;5053492;28;20392;-67
2022/06/13 05:08:28;;;;;;;8.73;3.50;;;17.40;99.90;;;;;;5053914;28;20045;-67
2022/06/13 05:11:07;;;;;;;7.63;3.20;;;17.80;99.90;;;;;;5053539;28;20389;-67
2022/06/13 05:13:34;;;;;;;8.98;3.30;;;18.30;99.90;;;;;;5054651;28;20075;-67
2022/06/13 05:16:19;;;;;;;8.20;3.72;;;18.60;99.90;;;;;;5037215;28;20068;-68
2022/06/13 05:19:08;;;;;;;7.28;3.03;;;19.10;99.00;;;;;;5054585;28;20048;-68
2022/06/13 05:21:37;;;;;;;8.73;3.83;;;19.40;97.60;;;;;;5055349;28;20064;-68
2022/06/13 05:24:23;;;;;;;8.70;3.13;;;19.60;96.70;;;;;;5054350;28;20049;-68
2022/06/13 05:26:49;;;;;;;6.70;3.00;;;19.80;94.60;;;;;;5054312;28;20047;-68
2022/06/13 05:29:16;;;;;;;8.00;3.30;;;20.00;93.60;;;;;;5054696;28;20357;-67
2022/06/13 05:31:43;;;;;;;7.90;4.00;;;20.10;92.00;;;;;;5054115;28;20041;-67
2022/06/13 05:34:26;;;;;;;7.70;3.08;;;20.30;91.10;;;;;;5055034;28;20403;-67
2022/06/13 05:36:54;;;;;;;6.50;3.38;;;20.40;90.00;;;;;;5037536;28;20052;-67
2022/06/13 05:39:21;;;;;;;7.38;3.42;;;20.40;90.00;;;;;;5054423;28;20068;-67
2022/06/13 05:41:48;;;;;;;7.35;3.28;;;20.40;89.40;;;;;;5052953;28;20076;-63
2022/06/13 05:44:15;;;;;;;65.80;58.58;;;20.40;89.00;;;;;;5054956;28;20048;-63
2022/06/13 05:46:41;;;;;;;113.35;101.95;;;20.20;86.90;;;;;;5053638;28;20049;-63
2022/06/13 05:49:12;;;;;;;28.08;22.95;;;20.00;87.00;;;;;;5070073;28;20041;-75
2022/06/13 05:51:39;;;;;;;10.20;7.45;;;19.60;86.90;;;;;;5053058;28;20056;-76
2022/06/13 05:54:11;;;;;;;7.03;3.75;;;19.30;89.50;;;;;;5052992;28;20049;-76
2022/06/13 05:56:38;;;;;;;13.75;3.58;;;19.20;89.10;;;;;;5054466;28;20056;-70
2022/06/13 05:59:05;;;;;;;8.40;3.83;;;18.90;89.60;;;;;;5053089;28;20393;-74
2022/06/13 06:01:34;;;;;;;7.07;3.30;;;18.60;90.60;;;;;;5054767;28;20041;-75
2022/06/13 06:04:02;;;;;;;;;;;18.60;91.80;;;;;;5053577;28;20049;-80
2022/06/13 06:06:30;;;;;;;9.00;3.25;;;18.50;91.60;;;;;;5070124;28;19916;-78
2022/06/13 06:08:57;;;;;;;6.82;3.28;;;18.40;91.80;;;;;;5052580;28;20056;-80
2022/06/13 06:11:25;;;;;;;91.45;75.57;;;18.40;91.80;;;;;;5053669;28;20041;-78
2022/06/13 06:13:52;;;;;;;27.30;20.13;;;18.20;92.20;;;;;;5053853;28;20059;-78
2022/06/13 06:16:21;;;;;;;9.43;5.43;;;18.00;92.60;;;;;;5053880;28;20083;-78
2022/06/13 06:18:48;;;;;;;10.10;3.50;;;18.00;92.80;;;;;;5053596;28;20124;-77
2022/06/13 06:21:15;;;;;;;6.43;2.88;;;18.00;92.80;;;;;;5052250;28;20045;-77
2022/06/13 06:23:42;;;;;;;5.38;2.55;;;18.10;92.90;;;;;;5036555;28;20041;-78
2022/06/13 06:26:22;;;;;;;8.75;3.28;;;18.30;92.80;;;;;;5053671;28;20045;-78
2022/06/13 06:28:49;;;;;;;9.52;2.47;;;18.10;93.20;;;;;;5052813;28;20452;-78
2022/06/13 06:31:16;;;;;;;8.18;2.08;;;18.00;93.10;;;;;;5052700;28;20040;-77
2022/06/13 06:33:43;;;;;;;8.13;2.47;;;17.80;93.20;;;;;;5051949;28;20047;-72
2022/06/13 06:36:10;;;;;;;3.05;2.03;;;17.70;93.40;;;;;;5052188;28;20051;-78
2022/06/13 06:38:37;;;;;;;5.82;2.25;;;17.70;93.80;;;;;;5035252;28;20051;-79
2022/06/13 06:41:04;;;;;;;5.53;2.10;;;17.60;94.40;;;;;;5053258;28;20079;-79
2022/06/13 06:43:31;;;;;;;8.13;2.30;;;17.60;94.70;;;;;;5053313;28;20041;-81
2022/06/13 06:45:58;;;;;;;10.45;2.50;;;17.60;94.80;;;;;;5053681;28;20075;-80
2022/06/13 06:48:26;;;;;;;4.50;1.55;;;17.60;94.10;;;;;;5054194;28;20128;-78
2022/06/13 06:50:53;;;;;;;3.35;1.33;;;17.50;94.10;;;;;;5053757;28;20057;-78
2022/06/13 06:53:22;;;;;;;4.45;1.73;;;17.50;94.30;;;;;;5051930;28;20040;-79
2022/06/13 07:01:24;;;;;;;5.35;2.10;;;17.40;94.70;;;;;;5053898;28;20379;-75
2022/06/13 07:03:51;;;;;;;5.32;2.45;;;17.30;94.30;;;;;;5051820;28;20048;-75
2022/06/13 07:06:18;;;;;;;5.40;1.88;;;17.30;94.40;;;;;;5052941;28;20099;-77
2022/06/13 07:08:45;;;;;;;5.07;2.25;;;17.30;94.10;;;;;;5053202;28;20037;-77
2022/06/13 07:14:07;;;;;;;4.07;2.42;;;17.50;92.70;;;;;;5052222;28;20045;-79
2022/06/13 07:16:33;;;;;;;8.45;3.28;;;17.50;93.40;;;;;;5056714;28;20063;-73
2022/06/13 07:19:00;;;;;;;6.13;2.05;;;17.50;92.30;;;;;;5055641;28;20049;-69
2022/06/13 07:21:27;;;;;;;6.43;2.50;;;17.40;93.10;;;;;;5056048;28;20069;-59
2022/06/13 07:23:54;;;;;;;4.50;1.98;;;17.30;92.70;;;;;;5056692;28;20041;-67
2022/06/13 07:26:22;;;;;;;3.72;1.88;;;17.30;93.00;;;;;;5056784;28;20041;-72
2022/06/13 07:28:54;;;;;;;4.78;2.15;;;17.30;93.40;;;;;;5056854;28;20128;-71
2022/06/13 07:31:29;;;;;;;14.70;10.25;;;17.40;93.70;;;;;;5057007;28;20044;-72
2022/06/13 07:33:56;;;;;;;6.03;2.88;;;17.60;93.70;;;;;;5055472;28;20084;-67
2022/06/13 07:36:23;;;;;;;5.75;2.75;;;17.70;93.30;;;;;;5056620;28;20445;-74
2022/06/13 07:38:49;;;;;;;6.68;2.28;;;17.70;92.90;;;;;;5056118;28;20055;-78
2022/06/13 07:41:19;;;;;;;5.35;2.00;;;17.90;92.80;;;;;;5056940;28;20060;-80
2022/06/13 07:43:46;;;;;;;3.97;1.80;;;17.90;92.80;;;;;;5056355;28;20365;-73
2022/06/13 07:46:13;;;;;;;37.63;29.65;;;18.10;92.20;;;;;;5055100;28;20088;-69
2022/06/13 07:48:40;;;;;;;20.55;15.07;;;18.10;91.50;;;;;;5055144;28;20452;-68
2022/06/13 07:51:08;;;;;;;6.93;2.67;;;18.30;90.90;;;;;;5056391;28;20049;-70
2022/06/13 07:53:35;;;;;;;4.53;1.75;;;18.30;89.20;;;;;;5056197;28;20056;-67
2022/06/13 07:56:23;;;;;;;4.00;2.30;;;18.30;88.80;;;;;;5056351;28;20044;-69
2022/06/13 07:58:51;;;;;;;5.53;2.15;;;18.40;89.90;;;;;;5055078;28;20044;-69
2022/06/13 08:01:18;;;;;;;4.97;1.80;;;18.70;90.00;;;;;;5055989;28;20045;-78
2022/06/13 08:03:45;;;;;;;6.82;1.75;;;18.70;87.10;;;;;;5055708;28;20071;-66
2022/06/13 08:06:12;;;;;;;5.00;1.52;;;18.80;86.20;;;;;;5055978;28;20385;-68
2022/06/13 08:08:42;;;;;;;4.70;1.65;;;18.90;85.00;;;;;;5057600;28;20040;-68
2022/06/13 08:11:09;;;;;;;2.38;1.40;;;19.00;83.60;;;;;;5055319;28;20060;-70
2022/06/13 08:13:37;;;;;;;3.85;1.48;;;19.10;82.40;;;;;;5054687;28;20132;-72
2022/06/13 08:16:04;;;;;;;5.60;1.88;;;19.00;83.30;;;;;;5054938;28;20473;-71
2022/06/13 08:18:31;;;;;;;4.20;1.75;;;18.70;82.10;;;;;;5055659;28;20041;-69
2022/06/13 08:20:58;;;;;;;5.75;2.20;;;18.40;83.20;;;;;;5055009;28;20044;-69
2022/06/13 08:23:25;;;;;;;3.85;1.88;;;18.20;84.60;;;;;;5055675;28;20048;-69
2022/06/13 08:25:52;;;;;;;4.80;1.50;;;18.10;84.90;;;;;;5053927;28;20491;-69
2022/06/13 08:28:19;;;;;;;3.05;1.60;;;18.10;87.20;;;;;;5039054;28;20041;-68
2022/06/13 08:30:58;;;;;;;6.78;2.50;;;18.40;83.00;;;;;;5055516;28;20353;-73
2022/06/13 08:33:25;;;;;;;5.23;1.73;;;18.50;84.10;;;;;;5055553;28;20084;-68
2022/06/13 08:35:52;;;;;;;4.15;1.40;;;18.90;84.00;;;;;;5055524;28;20278;-68
2022/06/13 08:38:19;;;;;;;2.85;1.20;;;19.10;78.30;;;;;;5054129;28;20506;-74
2022/06/13 08:41:15;;;;;;;3.22;1.42;;;18.90;78.30;;;;;;5055942;28;20480;-67
2022/06/13 08:44:00;;;;;;;2.38;1.40;;;18.80;78.40;;;;;;5054782;28;20420;-72
2022/06/13 08:46:43;;;;;;;5.95;1.90;;;18.70;80.00;;;;;;5055084;28;20041;-69
2022/06/13 08:49:38;;;;;;;3.75;1.50;;;18.90;80.00;;;;;;5037519;28;20055;-73
2022/06/13 08:52:10;;;;;;;2.35;1.30;;;19.10;80.40;;;;;;5054556;28;20053;-73
2022/06/13 08:54:37;;;;;;;3.00;1.20;;;19.30;75.40;;;;;;5055177;28;20045;-75
2022/06/13 08:57:10;;;;;;;2.75;1.40;;;19.30;75.40;;;;;;5053787;28;20040;-72
2022/06/13 08:59:42;;;;;;;2.97;1.50;;;19.40;75.60;;;;;;5037849;28;20048;-68
2022/06/13 09:02:37;;;;;;;2.25;1.35;;;19.50;76.00;;;;;;5053647;28;20081;-69
2022/06/13 09:05:12;;;;;;;3.78;1.52;;;19.40;73.70;;;;;;5054766;28;20045;-68
2022/06/13 09:07:43;;;;;;;2.58;1.45;;;19.40;74.30;;;;;;5037100;28;20048;-70
2022/06/13 09:10:31;;;;;;;2.85;1.40;;;19.30;74.90;;;;;;5038385;28;20052;-69
2022/06/13 09:13:23;;;;;;;1.90;1.13;;;19.20;73.10;;;;;;5053589;28;20045;-68
2022/06/13 09:16:13;;;;;;;2.47;1.20;;;19.10;74.70;;;;;;5053548;28;20037;-65
2022/06/13 09:19:15;;;;;;;2.53;1.25;;;19.10;73.30;;;;;;5053373;28;20041;-65
2022/06/13 09:21:50;;;;;;;3.03;1.50;;;19.30;74.30;;;;;;5049400;28;20055;-64
2022/06/13 09:24:37;;;;;;;2.08;1.25;;;19.70;73.20;;;;;;5055620;28;20041;-64
2022/06/13 09:27:09;;;;;;;3.92;1.85;;;19.80;72.80;;;;;;5050562;28;20045;-65
2022/06/13 09:29:50;;;;;;;4.85;1.67;;;19.80;71.60;;;;;;5054064;28;20041;-64
2022/06/13 09:32:21;;;;;;;2.80;1.55;;;19.60;70.90;;;;;;5054050;28;20056;-64
2022/06/13 09:34:51;;;;;;;2.80;1.23;;;19.60;72.10;;;;;;5036752;28;20353;-67
2022/06/13 09:37:30;;;;;;;2.78;1.25;;;19.60;72.00;;;;;;5052547;28;20495;-67
2022/06/13 09:39:57;;;;;;;;;;;19.90;72.30;;;;;;5053803;28;20388;-65
2022/06/13 09:42:52;;;;;;;3.55;1.48;;;20.20;69.10;;;;;;5069442;28;19916;-70
2022/06/13 09:45:43;;;;;;;2.65;1.60;;;20.40;68.90;;;;;;5053966;28;20041;-69
2022/06/13 09:48:29;;;;;;;3.58;1.60;;;20.30;70.90;;;;;;5053581;28;20419;-70
2022/06/13 09:50:59;;;;;;;2.67;1.20;;;20.20;68.50;;;;;;5052444;28;20519;-70
2022/06/13 09:53:45;;;;;;;2.83;1.48;;;20.30;72.20;;;;;;5053492;28;20077;-69
2022/06/13 09:56:36;;;;;;;3.67;1.60;;;20.60;68.00;;;;;;5054610;28;20082;-69
2022/06/13 09:59:03;;;;;;;4.28;1.48;;;20.90;68.60;;;;;;5053464;28;20049;-66
2022/06/13 10:01:33;;;;;;;4.00;1.80;;;20.90;67.70;;;;;;5054247;28;20045;-73
2022/06/13 10:04:21;;;;;;;2.42;1.30;;;21.20;67.40;;;;;;5053550;28;20044;-66
2022/06/13 10:07:09;;;;;;;2.70;1.60;;;21.20;67.20;;;;;;5052506;28;20045;-72
2022/06/13 10:09:43;;;;;;;3.33;1.77;;;21.10;66.50;;;;;;5054389;28;20041;-68
2022/06/13 10:12:32;;;;;;;3.80;1.55;;;20.90;67.90;;;;;;5053716;28;20044;-68
2022/06/13 10:15:34;;;;;;;3.15;1.77;;;20.60;66.00;;;;;;5054671;28;20048;-68
2022/06/13 10:18:35;;;;;;;6.63;1.80;;;20.70;70.60;;;;;;5046639;28;20049;-67
2022/06/13 10:21:15;;;;;;;4.18;1.65;;;20.90;65.70;;;;;;5053354;28;20083;-66
2022/06/13 10:23:45;;;;;;;2.97;1.30;;;21.10;67.40;;;;;;5053608;28;20052;-67
2022/06/13 10:26:40;;;;;;;2.65;1.23;;;21.10;65.30;;;;;;5054212;28;20036;-67
2022/06/13 10:29:18;;;;;;;6.57;3.40;;;20.80;65.90;;;;;;5053304;28;20055;-68
2022/06/13 10:32:12;;;;;;;4.85;1.90;;;20.50;66.40;;;;;;5052133;28;20049;-64
2022/06/13 10:34:46;;;;;;;4.00;1.42;;;20.60;70.10;;;;;;5053920;28;20125;-64
2022/06/13 10:37:42;;;;;;;4.60;2.03;;;20.60;67.00;;;;;;5053341;28;20049;-65
2022/06/13 10:40:10;;;;;;;4.38;1.35;;;20.50;67.70;;;;;;5049584;28;20124;-63
2022/06/13 10:42:38;;;;;;;5.28;1.55;;;20.60;67.80;;;;;;5052105;28;20045;-74
2022/06/13 10:45:07;;;;;;;2.72;1.38;;;20.70;67.10;;;;;;5053049;28;20049;-65
2022/06/13 10:47:46;;;;;;;7.55;1.70;;;20.80;67.40;;;;;;5051837;28;20099;-69
2022/06/13 10:50:23;;;;;;;3.78;1.40;;;20.90;66.50;;;;;;5035036;28;20072;-67
2022/06/13 10:52:52;;;;;;;54.40;45.10;;;21.00;65.90;;;;;;5052237;28;20473;-73
2022/06/13 10:55:22;;;;;;;6.88;5.15;;;21.10;65.10;;;;;;5069182;28;20057;-68
2022/06/13 10:57:58;;;;;;;5.57;2.28;;;21.30;69.50;;;;;;5051704;28;20042;-66
2022/06/13 11:00:29;;;;;;;3.17;1.42;;;21.40;68.00;;;;;;5052261;28;20135;-68
2022/06/13 11:03:13;;;;;;;2.75;1.73;;;21.70;67.90;;;;;;5052366;28;20079;-67
2022/06/13 11:06:02;;;;;;;4.28;1.50;;;21.90;63.10;;;;;;5035680;28;20043;-67
2022/06/13 11:08:29;;;;;;;4.57;1.63;;;21.90;63.90;;;;;;5053742;28;20135;-70
2022/06/13 11:11:03;;;;;;;3.47;1.38;;;21.80;64.40;;;;;;5051742;28;20132;-61
2022/06/13 11:13:34;;;;;;;5.00;1.58;;;21.80;62.60;;;;;;5035386;28;20055;-61
2022/06/13 11:24:53;;;;;;;3.40;1.50;;;21.50;63.20;;;;;;5052795;28;20041;-60
2022/06/13 11:27:41;;;;;;;3.03;1.40;;;21.50;62.70;;;;;;5053644;28;20051;-60
2022/06/13 11:30:29;;;;;;;6.13;3.63;;;21.50;64.10;;;;;;5051720;28;20041;-61
2022/06/13 11:33:13;;;;;;;3.70;1.90;;;21.50;62.90;;;;;;5052769;28;20051;-60
2022/06/13 11:35:54;;;;;;;3.10;1.73;;;21.20;63.10;;;;;;5052421;28;20041;-60
2022/06/13 11:38:34;;;;;;;3.92;1.88;;;21.40;63.20;;;;;;5053714;28;20067;-60
2022/06/13 11:41:08;;;;;;;4.13;2.20;;;21.50;62.00;;;;;;5053439;28;20045;-59
2022/06/13 11:43:42;;;;;;;3.90;1.75;;;21.50;60.40;;;;;;5052962;28;20040;-67
2022/06/13 11:46:30;;;;;;;2.58;1.60;;;21.50;59.80;;;;;;5051308;28;20480;-67
2022/06/13 11:49:02;;;;;;;2.53;1.65;;;21.50;60.40;;;;;;5052644;28;20044;-64
2022/06/13 11:51:35;;;;;;;4.70;1.98;;;21.50;61.30;;;;;;5051653;28;20060;-65
2022/06/13 11:54:02;;;;;;;4.00;2.05;;;21.40;62.20;;;;;;5051749;28;20056;-66
2022/06/13 11:56:33;;;;;;;4.68;2.50;;;21.50;62.70;;;;;;5051238;28;20037;-66
2022/06/13 11:59:02;;;;;;;3.25;1.52;;;21.60;61.40;;;;;;5034707;28;20392;-70
2022/06/13 12:01:38;;;;;;;2.42;1.50;;;21.80;60.70;;;;;;5052163;28;20132;-65
2022/06/13 12:04:11;;;;;;;5.90;1.88;;;21.70;60.80;;;;;;5055033;28;20536;-65
2022/06/13 12:06:41;;;;;;;6.13;1.55;;;21.60;62.10;;;;;;5056116;28;20377;-64
2022/06/13 12:09:19;;;;;;;2.40;1.58;;;21.60;62.10;;;;;;5056232;28;20045;-64
2022/06/13 12:11:50;;;;;;;5.15;1.65;;;21.60;60.80;;;;;;5054839;28;20049;-64
2022/06/13 12:14:17;;;;;;;5.18;1.77;;;21.70;62.00;;;;;;5055269;28;20045;-64
2022/06/13 12:16:53;;;;;;;4.20;1.80;;;22.00;62.00;;;;;;5038220;28;20041;-65
2022/06/13 12:19:34;;;;;;;4.47;2.17;;;22.10;60.00;;;;;;5054861;28;20477;-65
2022/06/13 12:22:27;;;;;;;2.38;1.50;;;22.30;61.50;;;;;;5055868;28;20045;-65
2022/06/13 12:25:00;;;;;;;5.25;1.77;;;22.40;61.40;;;;;;5056003;28;20059;-64
2022/06/13 12:27:42;;;;;;;3.13;1.80;;;22.40;60.50;;;;;;5055111;28;20052;-64
2022/06/13 12:30:36;;;;;;;3.85;1.70;;;22.40;60.80;;;;;;5055614;28;20076;-64
2022/06/13 12:33:33;;;;;;;2.95;1.40;;;22.50;60.70;;;;;;5038969;28;20051;-64
2022/06/13 12:36:18;;;;;;;3.20;1.73;;;22.70;62.00;;;;;;5050790;28;20045;-64
2022/06/13 12:38:54;;;;;;;4.55;1.30;;;23.10;60.90;;;;;;5056783;28;20044;-63
2022/06/13 12:41:24;;;;;;;1.95;1.42;;;23.40;61.00;;;;;;5054551;28;20055;-63
2022/06/13 12:43:57;;;;;;;6.18;2.20;;;23.70;59.60;;;;;;5056568;28;20075;-66
2022/06/13 12:47:18;;;;;;;5.00;1.98;;;23.70;58.20;;;;;;5055609;28;20041;-65
2022/06/13 12:50:13;;;;;;;4.15;1.80;;;23.50;58.00;;;;;;5029808;28;20047;-64
2022/06/13 12:52:50;;;;;;;2.15;1.40;;;23.30;58.00;;;;;;5056074;28;20068;-64
2022/06/13 12:55:26;;;;;;;4.85;2.13;;;23.00;59.10;;;;;;5055047;28;20040;-63
2022/06/13 12:57:59;;;;;;;5.05;1.80;;;22.80;59.20;;;;;;5054956;28;20037;-64
2022/06/13 13:00:52;;;;;;;3.92;2.00;;;22.50;58.50;;;;;;5054255;28;20055;-69
2022/06/13 13:03:19;;;;;;;5.15;1.90;;;22.40;59.30;;;;;;5034961;28;20075;-69
2022/06/13 13:05:53;;;;;;;4.82;2.50;;;22.40;59.60;;;;;;5055263;28;20099;-61
2022/06/13 13:08:24;;;;;;;5.85;1.70;;;22.50;58.90;;;;;;5054582;28;20045;-66
2022/06/13 13:10:58;;;;;;;4.60;1.60;;;22.50;62.40;;;;;;5037293;28;20049;-66
2022/06/13 13:13:42;;;;;;;8.38;2.28;;;22.70;59.70;;;;;;5054684;28;20483;-63
2022/06/13 13:16:31;;;;;;;3.28;2.10;;;22.70;61.00;;;;;;5053622;28;20041;-63
2022/06/13 13:19:19;;;;;;;3.00;1.63;;;22.90;61.10;;;;;;5054956;28;20142;-63
2022/06/13 13:22:24;;;;;;;4.93;2.08;;;23.10;61.40;;;;;;5054713;28;20041;-63
2022/06/13 13:25:02;;;;;;;3.60;1.80;;;23.10;58.40;;;;;;5055735;28;20045;-63
2022/06/13 13:27:32;;;;;;;2.70;1.92;;;23.00;61.10;;;;;;5053833;28;20045;-63
2022/06/13 13:30:19;;;;;;;3.33;2.10;;;22.90;60.40;;;;;;5053632;28;20072;-63
2022/06/13 13:33:01;;;;;;;14.27;7.68;;;22.90;58.50;;;;;;5053596;28;20049;-68
2022/06/13 13:35:41;;;;;;;5.13;3.05;;;22.80;60.40;;;;;;5055185;28;20045;-64
2022/06/13 13:38:27;;;;;;;3.78;2.33;;;22.80;59.70;;;;;;5053956;28;20045;-64
2022/06/13 13:41:01;;;;;;;4.55;2.03;;;22.80;59.60;;;;;;5036656;28;20056;-64
2022/06/13 13:43:40;;;;;;;4.70;2.20;;;22.60;59.90;;;;;;5053755;28;20447;-64
2022/06/13 13:46:14;;;;;;;6.43;2.92;;;22.60;60.20;;;;;;5053584;28;20556;-64
2022/06/13 13:48:53;;;;;;;6.13;2.17;;;22.50;59.20;;;;;;5053026;28;20052;-64
2022/06/13 13:52:06;;;;;;;4.15;2.65;;;22.40;61.30;;;;;;5036355;28;20063;-65